sensor_id;sensor_type;location;lat;lon;timestamp;P1;durP1;ratioP1;P2;durP2;ratioP2
20363;SDS011;10340;53.664;9.908;2022-08-21T00:01:29;2.25;;;2.05;;
20363;SDS011;10340;53.664;9.908;2022-08-21T00:03:57;4.40;;;1.80;;
20363;SDS011;10340;53.664;9.908;2022-08-21T00:06:25;2.10;;;1.50;;
20363;SDS011;10340;53.664;9.908;2022-08-21T00:08:52;2.75;;;1.45;;
20363;SDS011;10340;53.664;9.908;2022-08-21T00:11:21;3.35;;;2.08;;
20363;SDS011;10340;53.664;9.908;2022-08-21T00:13:48;2.33;;;1.77;;
20363;SDS011;10340;53.664;9.908;2022-08-21T00:16:15;2.13;;;1.42;;
20363;SDS011;10340;53.664;9.908;2022-08-21T00:18:42;1.50;;;1.40;;
20363;SDS011;10340;53.664;9.908;2022-08-21T00:21:10;1.60;;;1.50;;
20363;SDS011;10340;53.664;9.908;2022-08-21T00:23:39;1.67;;;1.58;;
20363;SDS011;10340;53.664;9.908;2022-08-21T00:26:06;1.38;;;1.27;;
20363;SDS011;10340;53.664;9.908;2022-08-21T00:28:33;2.30;;;1.60;;
20363;SDS011;10340;53.664;9.908;2022-08-21T00:31:00;2.33;;;1.75;;
20363;SDS011;10340;53.664;9.908;2022-08-21T00:33:29;2.03;;;1.83;;
20363;SDS011;10340;53.664;9.908;2022-08-21T00:35:56;2.05;;;1.85;;
20363;SDS011;10340;53.664;9.908;2022-08-21T00:38:24;3.33;;;1.88;;
20363;SDS011;10340;53.664;9.908;2022-08-21T00:40:53;3.80;;;2.15;;
20363;SDS011;10340;53.664;9.908;2022-08-21T00:43:22;5.32;;;2.00;;
20363;SDS011;10340;53.664;9.908;2022-08-21T00:45:52;3.72;;;2.45;;
20363;SDS011;10340;53.664;9.908;2022-08-21T00:48:20;2.97;;;1.75;;
20363;SDS011;10340;53.664;9.908;2022-08-21T00:50:48;4.90;;;1.60;;
20363;SDS011;10340;53.664;9.908;2022-08-21T00:53:18;1.70;;;1.60;;
20363;SDS011;10340;53.664;9.908;2022-08-21T00:55:45;1.67;;;1.58;;
20363;SDS011;10340;53.664;9.908;2022-08-21T00:58:14;2.33;;;1.55;;
20363;SDS011;10340;53.664;9.908;2022-08-21T01:00:42;2.30;;;1.65;;
20363;SDS011;10340;53.664;9.908;2022-08-21T01:03:13;3.42;;;1.90;;
20363;SDS011;10340;53.664;9.908;2022-08-21T01:05:41;2.13;;;1.83;;
20363;SDS011;10340;53.664;9.908;2022-08-21T01:08:09;4.57;;;2.90;;
20363;SDS011;10340;53.664;9.908;2022-08-21T01:10:38;4.88;;;3.08;;
20363;SDS011;10340;53.664;9.908;2022-08-21T01:13:05;4.40;;;4.00;;
20363;SDS011;10340;53.664;9.908;2022-08-21T01:15:37;2.70;;;2.50;;
20363;SDS011;10340;53.664;9.908;2022-08-21T01:18:06;2.25;;;2.03;;
20363;SDS011;10340;53.664;9.908;2022-08-21T01:20:36;3.55;;;2.28;;
20363;SDS011;10340;53.664;9.908;2022-08-21T01:23:06;2.60;;;2.25;;
20363;SDS011;10340;53.664;9.908;2022-08-21T01:25:33;3.05;;;1.90;;
20363;SDS011;10340;53.664;9.908;2022-08-21T01:28:02;2.78;;;1.92;;
20363;SDS011;10340;53.664;9.908;2022-08-21T01:30:35;2.50;;;2.17;;
20363;SDS011;10340;53.664;9.908;2022-08-21T01:33:03;2.13;;;1.92;;
20363;SDS011;10340;53.664;9.908;2022-08-21T01:35:30;2.17;;;1.92;;
20363;SDS011;10340;53.664;9.908;2022-08-21T01:37:57;2.10;;;2.00;;
20363;SDS011;10340;53.664;9.908;2022-08-21T01:40:26;2.22;;;2.05;;
20363;SDS011;10340;53.664;9.908;2022-08-21T01:42:53;2.65;;;2.45;;
20363;SDS011;10340;53.664;9.908;2022-08-21T01:45:20;2.20;;;1.88;;
20363;SDS011;10340;53.664;9.908;2022-08-21T01:47:47;2.10;;;1.95;;
20363;SDS011;10340;53.664;9.908;2022-08-21T01:50:15;2.13;;;1.92;;
20363;SDS011;10340;53.664;9.908;2022-08-21T01:52:43;2.05;;;1.90;;
20363;SDS011;10340;53.664;9.908;2022-08-21T01:55:10;2.03;;;1.88;;
20363;SDS011;10340;53.664;9.908;2022-08-21T01:57:40;1.65;;;1.55;;
20363;SDS011;10340;53.664;9.908;2022-08-21T02:00:08;1.75;;;1.65;;
20363;SDS011;10340;53.664;9.908;2022-08-21T02:02:37;1.65;;;1.55;;
20363;SDS011;10340;53.664;9.908;2022-08-21T02:05:05;1.67;;;1.58;;
20363;SDS011;10340;53.664;9.908;2022-08-21T02:07:35;1.95;;;1.83;;
20363;SDS011;10340;53.664;9.908;2022-08-21T02:10:05;2.05;;;1.95;;
20363;SDS011;10340;53.664;9.908;2022-08-21T02:12:34;1.80;;;1.70;;
20363;SDS011;10340;53.664;9.908;2022-08-21T02:15:02;1.70;;;1.60;;
20363;SDS011;10340;53.664;9.908;2022-08-21T02:17:36;1.83;;;1.73;;
20363;SDS011;10340;53.664;9.908;2022-08-21T02:20:05;2.85;;;1.73;;
20363;SDS011;10340;53.664;9.908;2022-08-21T02:22:33;1.92;;;1.80;;
20363;SDS011;10340;53.664;9.908;2022-08-21T02:25:00;1.80;;;1.70;;
20363;SDS011;10340;53.664;9.908;2022-08-21T02:27:27;2.20;;;2.00;;
20363;SDS011;10340;53.664;9.908;2022-08-21T02:29:54;2.88;;;2.35;;
20363;SDS011;10340;53.664;9.908;2022-08-21T02:32:23;2.33;;;2.10;;
20363;SDS011;10340;53.664;9.908;2022-08-21T02:34:50;1.92;;;1.83;;
20363;SDS011;10340;53.664;9.908;2022-08-21T02:37:17;2.10;;;1.90;;
20363;SDS011;10340;53.664;9.908;2022-08-21T02:39:44;2.20;;;2.00;;
20363;SDS011;10340;53.664;9.908;2022-08-21T02:42:11;1.90;;;1.80;;
20363;SDS011;10340;53.664;9.908;2022-08-21T02:44:38;3.00;;;1.90;;
20363;SDS011;10340;53.664;9.908;2022-08-21T02:47:05;2.28;;;1.90;;
20363;SDS011;10340;53.664;9.908;2022-08-21T02:49:33;1.83;;;1.73;;
20363;SDS011;10340;53.664;9.908;2022-08-21T02:52:00;1.85;;;1.75;;
20363;SDS011;10340;53.664;9.908;2022-08-21T02:54:27;1.70;;;1.60;;
20363;SDS011;10340;53.664;9.908;2022-08-21T02:56:54;1.83;;;1.52;;
20363;SDS011;10340;53.664;9.908;2022-08-21T02:59:22;2.50;;;1.90;;
20363;SDS011;10340;53.664;9.908;2022-08-21T03:01:49;1.70;;;1.60;;
20363;SDS011;10340;53.664;9.908;2022-08-21T03:04:16;1.65;;;1.55;;
20363;SDS011;10340;53.664;9.908;2022-08-21T03:06:44;1.95;;;1.85;;
20363;SDS011;10340;53.664;9.908;2022-08-21T03:09:11;1.25;;;1.15;;
20363;SDS011;10340;53.664;9.908;2022-08-21T03:11:38;2.22;;;1.65;;
20363;SDS011;10340;53.664;9.908;2022-08-21T03:14:05;2.03;;;1.92;;
20363;SDS011;10340;53.664;9.908;2022-08-21T03:16:32;1.92;;;1.80;;
20363;SDS011;10340;53.664;9.908;2022-08-21T03:18:58;1.73;;;1.63;;
20363;SDS011;10340;53.664;9.908;2022-08-21T03:21:25;2.03;;;1.90;;
20363;SDS011;10340;53.664;9.908;2022-08-21T03:23:55;2.92;;;2.20;;
20363;SDS011;10340;53.664;9.908;2022-08-21T03:26:21;2.13;;;1.92;;
20363;SDS011;10340;53.664;9.908;2022-08-21T03:28:49;2.33;;;1.95;;
20363;SDS011;10340;53.664;9.908;2022-08-21T03:31:16;1.95;;;1.60;;
20363;SDS011;10340;53.664;9.908;2022-08-21T03:33:43;2.90;;;2.10;;
20363;SDS011;10340;53.664;9.908;2022-08-21T03:36:10;2.38;;;2.10;;
20363;SDS011;10340;53.664;9.908;2022-08-21T03:38:37;3.38;;;1.90;;
20363;SDS011;10340;53.664;9.908;2022-08-21T03:41:06;1.90;;;1.80;;
20363;SDS011;10340;53.664;9.908;2022-08-21T03:43:34;2.08;;;1.88;;
20363;SDS011;10340;53.664;9.908;2022-08-21T03:46:04;2.25;;;2.10;;
20363;SDS011;10340;53.664;9.908;2022-08-21T03:48:32;2.58;;;2.30;;
20363;SDS011;10340;53.664;9.908;2022-08-21T03:51:00;2.28;;;2.08;;
20363;SDS011;10340;53.664;9.908;2022-08-21T03:53:28;2.42;;;2.22;;
20363;SDS011;10340;53.664;9.908;2022-08-21T03:55:55;2.10;;;2.00;;
20363;SDS011;10340;53.664;9.908;2022-08-21T03:58:25;2.30;;;2.10;;
20363;SDS011;10340;53.664;9.908;2022-08-21T04:00:54;1.90;;;1.80;;
20363;SDS011;10340;53.664;9.908;2022-08-21T04:03:23;2.67;;;2.47;;
20363;SDS011;10340;53.664;9.908;2022-08-21T04:05:51;2.45;;;2.17;;
20363;SDS011;10340;53.664;9.908;2022-08-21T04:08:18;2.55;;;2.35;;
20363;SDS011;10340;53.664;9.908;2022-08-21T04:10:46;3.70;;;3.00;;
20363;SDS011;10340;53.664;9.908;2022-08-21T04:13:14;2.90;;;2.70;;
20363;SDS011;10340;53.664;9.908;2022-08-21T04:15:43;2.75;;;2.35;;
20363;SDS011;10340;53.664;9.908;2022-08-21T04:18:10;3.08;;;2.80;;
20363;SDS011;10340;53.664;9.908;2022-08-21T04:20:39;3.40;;;3.10;;
20363;SDS011;10340;53.664;9.908;2022-08-21T04:23:08;2.80;;;2.60;;
20363;SDS011;10340;53.664;9.908;2022-08-21T04:25:35;3.25;;;2.97;;
20363;SDS011;10340;53.664;9.908;2022-08-21T04:28:03;2.80;;;2.60;;
20363;SDS011;10340;53.664;9.908;2022-08-21T04:30:30;3.58;;;2.42;;
20363;SDS011;10340;53.664;9.908;2022-08-21T04:32:58;2.63;;;2.42;;
20363;SDS011;10340;53.664;9.908;2022-08-21T04:35:26;2.50;;;2.30;;
20363;SDS011;10340;53.664;9.908;2022-08-21T04:37:53;2.30;;;2.10;;
20363;SDS011;10340;53.664;9.908;2022-08-21T04:40:21;2.92;;;2.72;;
20363;SDS011;10340;53.664;9.908;2022-08-21T04:42:51;2.60;;;2.40;;
20363;SDS011;10340;53.664;9.908;2022-08-21T04:45:21;2.10;;;2.00;;
20363;SDS011;10340;53.664;9.908;2022-08-21T04:47:50;2.70;;;2.50;;
20363;SDS011;10340;53.664;9.908;2022-08-21T04:50:20;2.45;;;2.30;;
20363;SDS011;10340;53.664;9.908;2022-08-21T04:52:50;2.95;;;2.65;;
20363;SDS011;10340;53.664;9.908;2022-08-21T04:55:18;2.53;;;2.35;;
20363;SDS011;10340;53.664;9.908;2022-08-21T04:57:45;3.33;;;2.92;;
20363;SDS011;10340;53.664;9.908;2022-08-21T05:00:13;3.35;;;3.05;;
20363;SDS011;10340;53.664;9.908;2022-08-21T05:02:43;2.95;;;2.75;;
20363;SDS011;10340;53.664;9.908;2022-08-21T05:05:11;2.67;;;2.47;;
20363;SDS011;10340;53.664;9.908;2022-08-21T05:07:40;3.03;;;2.83;;
20363;SDS011;10340;53.664;9.908;2022-08-21T05:10:10;3.50;;;3.20;;
20363;SDS011;10340;53.664;9.908;2022-08-21T05:12:39;3.15;;;2.95;;
20363;SDS011;10340;53.664;9.908;2022-08-21T05:15:08;3.38;;;3.08;;
20363;SDS011;10340;53.664;9.908;2022-08-21T05:17:36;3.95;;;3.58;;
20363;SDS011;10340;53.664;9.908;2022-08-21T05:20:04;4.43;;;4.03;;
20363;SDS011;10340;53.664;9.908;2022-08-21T05:22:31;3.92;;;3.63;;
20363;SDS011;10340;53.664;9.908;2022-08-21T05:24:59;3.60;;;3.30;;
20363;SDS011;10340;53.664;9.908;2022-08-21T05:27:26;4.57;;;4.18;;
20363;SDS011;10340;53.664;9.908;2022-08-21T05:29:54;4.15;;;3.53;;
20363;SDS011;10340;53.664;9.908;2022-08-21T05:32:21;4.03;;;3.70;;
20363;SDS011;10340;53.664;9.908;2022-08-21T05:34:49;6.22;;;4.28;;
20363;SDS011;10340;53.664;9.908;2022-08-21T05:37:15;4.60;;;4.20;;
20363;SDS011;10340;53.664;9.908;2022-08-21T05:39:42;4.68;;;4.05;;
20363;SDS011;10340;53.664;9.908;2022-08-21T05:42:11;5.40;;;4.70;;
20363;SDS011;10340;53.664;9.908;2022-08-21T05:44:38;5.10;;;4.60;;
20363;SDS011;10340;53.664;9.908;2022-08-21T05:47:05;4.70;;;4.18;;
20363;SDS011;10340;53.664;9.908;2022-08-21T05:49:33;4.70;;;4.25;;
20363;SDS011;10340;53.664;9.908;2022-08-21T05:52:01;5.43;;;4.93;;
20363;SDS011;10340;53.664;9.908;2022-08-21T05:54:29;5.28;;;4.88;;
20363;SDS011;10340;53.664;9.908;2022-08-21T05:56:57;5.75;;;4.63;;
20363;SDS011;10340;53.664;9.908;2022-08-21T05:59:25;5.82;;;4.45;;
20363;SDS011;10340;53.664;9.908;2022-08-21T06:01:52;5.95;;;4.65;;
20363;SDS011;10340;53.664;9.908;2022-08-21T06:04:19;5.10;;;4.63;;
20363;SDS011;10340;53.664;9.908;2022-08-21T06:06:46;6.55;;;5.70;;
20363;SDS011;10340;53.664;9.908;2022-08-21T06:09:13;5.70;;;5.07;;
20363;SDS011;10340;53.664;9.908;2022-08-21T06:11:40;6.15;;;5.35;;
20363;SDS011;10340;53.664;9.908;2022-08-21T06:14:07;6.45;;;5.75;;
20363;SDS011;10340;53.664;9.908;2022-08-21T06:16:35;6.97;;;5.85;;
20363;SDS011;10340;53.664;9.908;2022-08-21T06:19:02;6.75;;;5.80;;
20363;SDS011;10340;53.664;9.908;2022-08-21T06:21:29;6.07;;;5.50;;
20363;SDS011;10340;53.664;9.908;2022-08-21T06:23:56;4.82;;;4.43;;
20363;SDS011;10340;53.664;9.908;2022-08-21T06:26:24;4.53;;;4.10;;
20363;SDS011;10340;53.664;9.908;2022-08-21T06:28:50;5.20;;;4.70;;
20363;SDS011;10340;53.664;9.908;2022-08-21T06:31:20;5.30;;;4.80;;
20363;SDS011;10340;53.664;9.908;2022-08-21T06:33:49;5.20;;;4.53;;
20363;SDS011;10340;53.664;9.908;2022-08-21T06:36:16;6.63;;;3.90;;
20363;SDS011;10340;53.664;9.908;2022-08-21T06:38:44;4.43;;;3.60;;
20363;SDS011;10340;53.664;9.908;2022-08-21T06:41:11;4.45;;;3.60;;
20363;SDS011;10340;53.664;9.908;2022-08-21T06:43:38;3.92;;;3.50;;
20363;SDS011;10340;53.664;9.908;2022-08-21T06:46:05;3.53;;;2.92;;
20363;SDS011;10340;53.664;9.908;2022-08-21T06:48:32;3.50;;;2.58;;
20363;SDS011;10340;53.664;9.908;2022-08-21T06:51:00;3.28;;;2.40;;
20363;SDS011;10340;53.664;9.908;2022-08-21T06:53:28;5.43;;;2.00;;
20363;SDS011;10340;53.664;9.908;2022-08-21T06:55:55;2.13;;;1.77;;
20363;SDS011;10340;53.664;9.908;2022-08-21T06:58:22;4.60;;;1.67;;
20363;SDS011;10340;53.664;9.908;2022-08-21T07:00:49;4.70;;;1.80;;
20363;SDS011;10340;53.664;9.908;2022-08-21T07:03:22;1.92;;;1.60;;
20363;SDS011;10340;53.664;9.908;2022-08-21T07:05:51;2.75;;;1.63;;
20363;SDS011;10340;53.664;9.908;2022-08-21T07:08:19;2.60;;;1.50;;
20363;SDS011;10340;53.664;9.908;2022-08-21T07:10:47;1.48;;;1.35;;
20363;SDS011;10340;53.664;9.908;2022-08-21T07:13:15;2.38;;;1.58;;
20363;SDS011;10340;53.664;9.908;2022-08-21T07:15:42;2.33;;;1.52;;
20363;SDS011;10340;53.664;9.908;2022-08-21T07:18:09;2.15;;;1.73;;
20363;SDS011;10340;53.664;9.908;2022-08-21T07:20:37;4.05;;;1.65;;
20363;SDS011;10340;53.664;9.908;2022-08-21T07:23:05;2.40;;;1.52;;
20363;SDS011;10340;53.664;9.908;2022-08-21T07:25:35;3.55;;;1.70;;
20363;SDS011;10340;53.664;9.908;2022-08-21T07:28:03;1.75;;;1.48;;
20363;SDS011;10340;53.664;9.908;2022-08-21T07:30:30;2.28;;;1.73;;
20363;SDS011;10340;53.664;9.908;2022-08-21T07:32:56;2.47;;;1.60;;
20363;SDS011;10340;53.664;9.908;2022-08-21T07:35:23;1.27;;;1.17;;
20363;SDS011;10340;53.664;9.908;2022-08-21T07:37:53;1.23;;;1.13;;
20363;SDS011;10340;53.664;9.908;2022-08-21T07:40:20;3.83;;;2.03;;
20363;SDS011;10340;53.664;9.908;2022-08-21T07:42:48;2.13;;;1.45;;
20363;SDS011;10340;53.664;9.908;2022-08-21T07:45:17;3.10;;;1.30;;
20363;SDS011;10340;53.664;9.908;2022-08-21T07:47:45;3.10;;;1.50;;
20363;SDS011;10340;53.664;9.908;2022-08-21T07:50:13;1.50;;;1.25;;
20363;SDS011;10340;53.664;9.908;2022-08-21T07:52:41;3.35;;;1.58;;
20363;SDS011;10340;53.664;9.908;2022-08-21T07:55:09;3.53;;;1.38;;
20363;SDS011;10340;53.664;9.908;2022-08-21T07:57:37;3.50;;;1.50;;
20363;SDS011;10340;53.664;9.908;2022-08-21T08:00:07;1.92;;;1.25;;
20363;SDS011;10340;53.664;9.908;2022-08-21T08:02:36;3.13;;;1.35;;
20363;SDS011;10340;53.664;9.908;2022-08-21T08:05:05;4.35;;;1.80;;
20363;SDS011;10340;53.664;9.908;2022-08-21T08:07:34;1.95;;;1.50;;
20363;SDS011;10340;53.664;9.908;2022-08-21T08:10:01;3.55;;;1.60;;
20363;SDS011;10340;53.664;9.908;2022-08-21T08:12:28;2.80;;;1.42;;
20363;SDS011;10340;53.664;9.908;2022-08-21T08:14:55;2.88;;;1.50;;
20363;SDS011;10340;53.664;9.908;2022-08-21T08:17:24;2.80;;;1.70;;
20363;SDS011;10340;53.664;9.908;2022-08-21T08:19:52;4.25;;;1.55;;
20363;SDS011;10340;53.664;9.908;2022-08-21T08:22:20;3.95;;;1.90;;
20363;SDS011;10340;53.664;9.908;2022-08-21T08:24:48;6.78;;;2.33;;
20363;SDS011;10340;53.664;9.908;2022-08-21T08:27:16;3.13;;;2.00;;
20363;SDS011;10340;53.664;9.908;2022-08-21T08:29:43;2.65;;;1.58;;
20363;SDS011;10340;53.664;9.908;2022-08-21T08:32:10;4.05;;;2.10;;
20363;SDS011;10340;53.664;9.908;2022-08-21T08:34:39;5.40;;;1.92;;
20363;SDS011;10340;53.664;9.908;2022-08-21T08:37:06;2.17;;;1.67;;
20363;SDS011;10340;53.664;9.908;2022-08-21T08:39:35;5.32;;;2.40;;
20363;SDS011;10340;53.664;9.908;2022-08-21T08:42:03;5.85;;;2.35;;
20363;SDS011;10340;53.664;9.908;2022-08-21T08:44:34;3.15;;;1.73;;
20363;SDS011;10340;53.664;9.908;2022-08-21T08:47:02;3.58;;;1.92;;
20363;SDS011;10340;53.664;9.908;2022-08-21T08:49:31;5.07;;;2.15;;
20363;SDS011;10340;53.664;9.908;2022-08-21T08:52:05;4.38;;;1.80;;
20363;SDS011;10340;53.664;9.908;2022-08-21T08:54:39;3.53;;;1.75;;
20363;SDS011;10340;53.664;9.908;2022-08-21T08:57:14;5.90;;;2.17;;
20363;SDS011;10340;53.664;9.908;2022-08-21T08:59:45;4.45;;;1.98;;
20363;SDS011;10340;53.664;9.908;2022-08-21T09:02:14;6.82;;;2.85;;
20363;SDS011;10340;53.664;9.908;2022-08-21T09:04:42;5.10;;;2.30;;
20363;SDS011;10340;53.664;9.908;2022-08-21T09:07:24;5.55;;;2.28;;
20363;SDS011;10340;53.664;9.908;2022-08-21T09:10:05;4.03;;;1.90;;
20363;SDS011;10340;53.664;9.908;2022-08-21T09:12:42;4.53;;;2.28;;
20363;SDS011;10340;53.664;9.908;2022-08-21T09:15:16;5.95;;;2.15;;
20363;SDS011;10340;53.664;9.908;2022-08-21T09:18:03;3.70;;;1.90;;
20363;SDS011;10340;53.664;9.908;2022-08-21T09:20:40;3.72;;;2.03;;
20363;SDS011;10340;53.664;9.908;2022-08-21T09:23:19;5.85;;;2.03;;
20363;SDS011;10340;53.664;9.908;2022-08-21T09:25:58;4.28;;;2.30;;
20363;SDS011;10340;53.664;9.908;2022-08-21T09:28:33;3.60;;;1.92;;
20363;SDS011;10340;53.664;9.908;2022-08-21T09:31:01;4.70;;;1.98;;
20363;SDS011;10340;53.664;9.908;2022-08-21T09:33:32;2.42;;;1.70;;
20363;SDS011;10340;53.664;9.908;2022-08-21T09:35:59;3.85;;;2.13;;
20363;SDS011;10340;53.664;9.908;2022-08-21T09:38:29;4.82;;;2.20;;
20363;SDS011;10340;53.664;9.908;2022-08-21T09:40:59;5.53;;;1.50;;
20363;SDS011;10340;53.664;9.908;2022-08-21T09:43:28;3.53;;;1.88;;
20363;SDS011;10340;53.664;9.908;2022-08-21T09:46:09;4.82;;;1.92;;
20363;SDS011;10340;53.664;9.908;2022-08-21T09:48:39;5.43;;;2.17;;
20363;SDS011;10340;53.664;9.908;2022-08-21T09:51:09;5.43;;;2.00;;
20363;SDS011;10340;53.664;9.908;2022-08-21T09:53:39;3.58;;;2.10;;
20363;SDS011;10340;53.664;9.908;2022-08-21T09:56:17;2.67;;;1.80;;
20363;SDS011;10340;53.664;9.908;2022-08-21T09:59:17;5.32;;;2.42;;
20363;SDS011;10340;53.664;9.908;2022-08-21T10:01:47;6.18;;;2.50;;
20363;SDS011;10340;53.664;9.908;2022-08-21T10:04:19;3.25;;;2.33;;
20363;SDS011;10340;53.664;9.908;2022-08-21T10:06:48;8.27;;;2.25;;
20363;SDS011;10340;53.664;9.908;2022-08-21T10:09:17;4.10;;;2.22;;
20363;SDS011;10340;53.664;9.908;2022-08-21T10:11:49;2.65;;;2.20;;
20363;SDS011;10340;53.664;9.908;2022-08-21T10:14:39;3.22;;;2.30;;
20363;SDS011;10340;53.664;9.908;2022-08-21T10:17:14;3.88;;;2.10;;
20363;SDS011;10340;53.664;9.908;2022-08-21T10:19:49;3.22;;;1.90;;
20363;SDS011;10340;53.664;9.908;2022-08-21T10:22:22;4.60;;;2.10;;
20363;SDS011;10340;53.664;9.908;2022-08-21T10:25:01;3.72;;;1.90;;
20363;SDS011;10340;53.664;9.908;2022-08-21T10:27:34;3.80;;;2.17;;
20363;SDS011;10340;53.664;9.908;2022-08-21T10:30:11;2.60;;;1.95;;
20363;SDS011;10340;53.664;9.908;2022-08-21T10:32:47;5.95;;;2.13;;
20363;SDS011;10340;53.664;9.908;2022-08-21T10:35:22;4.25;;;2.00;;
20363;SDS011;10340;53.664;9.908;2022-08-21T10:38:02;5.32;;;2.47;;
20363;SDS011;10340;53.664;9.908;2022-08-21T10:40:50;3.63;;;2.42;;
20363;SDS011;10340;53.664;9.908;2022-08-21T10:43:26;3.78;;;1.85;;
20363;SDS011;10340;53.664;9.908;2022-08-21T10:46:01;3.45;;;2.22;;
20363;SDS011;10340;53.664;9.908;2022-08-21T10:48:37;4.07;;;2.35;;
20363;SDS011;10340;53.664;9.908;2022-08-21T10:51:12;3.03;;;1.70;;
20363;SDS011;10340;53.664;9.908;2022-08-21T10:53:50;2.38;;;1.70;;
20363;SDS011;10340;53.664;9.908;2022-08-21T10:56:24;3.50;;;1.92;;
20363;SDS011;10340;53.664;9.908;2022-08-21T10:58:59;1.60;;;1.35;;
20363;SDS011;10340;53.664;9.908;2022-08-21T11:01:40;4.32;;;1.63;;
20363;SDS011;10340;53.664;9.908;2022-08-21T11:04:16;2.50;;;1.88;;
20363;SDS011;10340;53.664;9.908;2022-08-21T11:06:46;1.48;;;1.27;;
20363;SDS011;10340;53.664;9.908;2022-08-21T11:09:20;1.75;;;1.48;;
20363;SDS011;10340;53.664;9.908;2022-08-21T11:11:52;2.17;;;1.60;;
20363;SDS011;10340;53.664;9.908;2022-08-21T11:14:29;1.73;;;1.50;;
20363;SDS011;10340;53.664;9.908;2022-08-21T11:17:05;2.03;;;1.48;;
20363;SDS011;10340;53.664;9.908;2022-08-21T11:19:35;3.85;;;1.92;;
20363;SDS011;10340;53.664;9.908;2022-08-21T11:22:10;1.65;;;1.55;;
20363;SDS011;10340;53.664;9.908;2022-08-21T11:24:42;4.80;;;1.80;;
20363;SDS011;10340;53.664;9.908;2022-08-21T11:27:18;2.35;;;1.52;;
20363;SDS011;10340;53.664;9.908;2022-08-21T11:29:49;2.30;;;1.63;;
20363;SDS011;10340;53.664;9.908;2022-08-21T11:35:17;2.72;;;1.85;;
20363;SDS011;10340;53.664;9.908;2022-08-21T13:32:23;2.10;;;1.30;;
20363;SDS011;10340;53.664;9.908;2022-08-21T13:34:52;1.20;;;1.00;;
20363;SDS011;10340;53.664;9.908;2022-08-21T13:37:19;0.90;;;0.85;;
20363;SDS011;10340;53.664;9.908;2022-08-21T13:39:49;1.23;;;1.00;;
20363;SDS011;10340;53.664;9.908;2022-08-21T13:42:17;2.80;;;1.00;;
20363;SDS011;10340;53.664;9.908;2022-08-21T13:44:46;1.83;;;1.15;;
20363;SDS011;10340;53.664;9.908;2022-08-21T13:47:15;1.95;;;1.13;;
20363;SDS011;10340;53.664;9.908;2022-08-21T13:49:45;1.90;;;1.02;;
20363;SDS011;10340;53.664;9.908;2022-08-21T13:52:14;2.20;;;1.10;;
20363;SDS011;10340;53.664;9.908;2022-08-21T13:54:50;0.98;;;0.90;;
20363;SDS011;10340;53.664;9.908;2022-08-21T13:57:20;2.72;;;1.33;;
20363;SDS011;10340;53.664;9.908;2022-08-21T13:59:52;2.50;;;1.02;;
20363;SDS011;10340;53.664;9.908;2022-08-21T14:02:19;1.58;;;1.00;;
20363;SDS011;10340;53.664;9.908;2022-08-21T14:04:51;1.55;;;1.10;;
20363;SDS011;10340;53.664;9.908;2022-08-21T14:07:24;1.08;;;0.90;;
20363;SDS011;10340;53.664;9.908;2022-08-21T14:09:56;4.15;;;1.35;;
20363;SDS011;10340;53.664;9.908;2022-08-21T14:12:28;2.70;;;1.38;;
20363;SDS011;10340;53.664;9.908;2022-08-21T14:15:01;2.15;;;1.17;;
20363;SDS011;10340;53.664;9.908;2022-08-21T14:17:33;2.22;;;1.10;;
20363;SDS011;10340;53.664;9.908;2022-08-21T14:20:04;1.75;;;1.20;;
20363;SDS011;10340;53.664;9.908;2022-08-21T14:22:37;1.77;;;1.67;;
20363;SDS011;10340;53.664;9.908;2022-08-21T14:25:06;1.75;;;1.20;;
20363;SDS011;10340;53.664;9.908;2022-08-21T14:27:38;1.85;;;1.10;;
20363;SDS011;10340;53.664;9.908;2022-08-21T14:30:11;2.83;;;1.20;;
20363;SDS011;10340;53.664;9.908;2022-08-21T14:32:42;1.58;;;1.02;;
20363;SDS011;10340;53.664;9.908;2022-08-21T14:35:10;0.93;;;0.90;;
20363;SDS011;10340;53.664;9.908;2022-08-21T14:37:41;2.03;;;1.05;;
20363;SDS011;10340;53.664;9.908;2022-08-21T14:40:09;1.48;;;1.10;;
20363;SDS011;10340;53.664;9.908;2022-08-21T14:42:36;2.13;;;1.45;;
20363;SDS011;10340;53.664;9.908;2022-08-21T14:45:06;1.67;;;1.00;;
20363;SDS011;10340;53.664;9.908;2022-08-21T14:47:39;1.73;;;1.05;;
20363;SDS011;10340;53.664;9.908;2022-08-21T14:50:07;0.95;;;0.90;;
20363;SDS011;10340;53.664;9.908;2022-08-21T14:52:37;2.30;;;1.27;;
20363;SDS011;10340;53.664;9.908;2022-08-21T14:55:04;2.17;;;1.30;;
20363;SDS011;10340;53.664;9.908;2022-08-21T14:57:33;2.75;;;1.45;;
20363;SDS011;10340;53.664;9.908;2022-08-21T15:00:01;1.88;;;1.17;;
20363;SDS011;10340;53.664;9.908;2022-08-21T15:02:29;1.70;;;1.33;;
20363;SDS011;10340;53.664;9.908;2022-08-21T15:04:56;2.22;;;1.15;;
20363;SDS011;10340;53.664;9.908;2022-08-21T15:07:22;2.10;;;1.30;;
20363;SDS011;10340;53.664;9.908;2022-08-21T15:09:51;1.48;;;0.80;;
20363;SDS011;10340;53.664;9.908;2022-08-21T15:12:18;1.30;;;1.00;;
20363;SDS011;10340;53.664;9.908;2022-08-21T15:14:45;1.75;;;1.27;;
20363;SDS011;10340;53.664;9.908;2022-08-21T15:17:12;1.48;;;1.27;;
20363;SDS011;10340;53.664;9.908;2022-08-21T15:19:39;3.60;;;1.13;;
20363;SDS011;10340;53.664;9.908;2022-08-21T15:22:06;3.00;;;2.70;;
20363;SDS011;10340;53.664;9.908;2022-08-21T15:24:33;4.25;;;1.40;;
20363;SDS011;10340;53.664;9.908;2022-08-21T15:27:02;1.30;;;1.10;;
20363;SDS011;10340;53.664;9.908;2022-08-21T15:29:32;2.33;;;1.00;;
20363;SDS011;10340;53.664;9.908;2022-08-21T15:32:00;2.55;;;1.17;;
20363;SDS011;10340;53.664;9.908;2022-08-21T15:34:29;2.67;;;1.10;;
20363;SDS011;10340;53.664;9.908;2022-08-21T15:36:58;1.90;;;1.08;;
20363;SDS011;10340;53.664;9.908;2022-08-21T15:39:25;1.23;;;1.00;;
20363;SDS011;10340;53.664;9.908;2022-08-21T15:41:57;1.30;;;0.90;;
20363;SDS011;10340;53.664;9.908;2022-08-21T15:44:26;1.58;;;0.88;;
20363;SDS011;10340;53.664;9.908;2022-08-21T15:46:54;2.20;;;0.82;;
20363;SDS011;10340;53.664;9.908;2022-08-21T15:49:24;2.70;;;1.00;;
20363;SDS011;10340;53.664;9.908;2022-08-21T15:51:51;2.13;;;1.08;;
20363;SDS011;10340;53.664;9.908;2022-08-21T15:54:21;1.10;;;1.00;;
20363;SDS011;10340;53.664;9.908;2022-08-21T15:56:48;1.50;;;0.90;;
20363;SDS011;10340;53.664;9.908;2022-08-21T15:59:17;1.58;;;1.20;;
20363;SDS011;10340;53.664;9.908;2022-08-21T16:01:48;1.25;;;0.90;;
20363;SDS011;10340;53.664;9.908;2022-08-21T16:04:21;1.15;;;1.00;;
20363;SDS011;10340;53.664;9.908;2022-08-21T16:06:50;1.73;;;0.90;;
20363;SDS011;10340;53.664;9.908;2022-08-21T16:09:17;2.63;;;1.35;;
20363;SDS011;10340;53.664;9.908;2022-08-21T16:11:44;1.60;;;1.02;;
20363;SDS011;10340;53.664;9.908;2022-08-21T16:14:12;1.05;;;0.93;;
20363;SDS011;10340;53.664;9.908;2022-08-21T16:16:41;1.23;;;0.93;;
20363;SDS011;10340;53.664;9.908;2022-08-21T16:19:10;2.05;;;0.90;;
20363;SDS011;10340;53.664;9.908;2022-08-21T16:21:38;1.75;;;0.98;;
20363;SDS011;10340;53.664;9.908;2022-08-21T16:24:05;1.90;;;1.17;;
20363;SDS011;10340;53.664;9.908;2022-08-21T16:26:32;2.33;;;0.98;;
20363;SDS011;10340;53.664;9.908;2022-08-21T16:28:59;1.90;;;0.95;;
20363;SDS011;10340;53.664;9.908;2022-08-21T16:31:31;2.55;;;1.05;;
20363;SDS011;10340;53.664;9.908;2022-08-21T16:34:01;1.05;;;0.95;;
20363;SDS011;10340;53.664;9.908;2022-08-21T16:36:29;3.03;;;1.15;;
20363;SDS011;10340;53.664;9.908;2022-08-21T16:38:59;1.15;;;0.90;;
20363;SDS011;10340;53.664;9.908;2022-08-21T16:41:28;2.10;;;1.00;;
20363;SDS011;10340;53.664;9.908;2022-08-21T16:43:58;1.77;;;1.10;;
20363;SDS011;10340;53.664;9.908;2022-08-21T16:46:26;2.63;;;1.45;;
20363;SDS011;10340;53.664;9.908;2022-08-21T16:48:57;2.55;;;1.00;;
20363;SDS011;10340;53.664;9.908;2022-08-21T16:51:27;2.30;;;1.30;;
20363;SDS011;10340;53.664;9.908;2022-08-21T16:53:59;2.17;;;1.08;;
20363;SDS011;10340;53.664;9.908;2022-08-21T16:56:26;1.92;;;1.10;;
20363;SDS011;10340;53.664;9.908;2022-08-21T16:58:53;2.58;;;1.08;;